sensor_id;sensor_type;location;lat;lon;timestamp;P1;durP1;ratioP1;P2;durP2;ratioP2
68653;SDS011;55636;51.108;13.622;2024-01-30T00:00:09;18.77;;;14.40;;
68653;SDS011;55636;51.108;13.622;2024-01-30T00:01:13;18.27;;;13.70;;
68653;SDS011;55636;51.108;13.622;2024-01-30T00:02:15;16.50;;;13.27;;
68653;SDS011;55636;51.108;13.622;2024-01-30T00:03:18;18.23;;;14.10;;
68653;SDS011;55636;51.108;13.622;2024-01-30T00:04:22;17.73;;;14.13;;
68653;SDS011;55636;51.108;13.622;2024-01-30T00:05:24;18.87;;;14.37;;
68653;SDS011;55636;51.108;13.622;2024-01-30T00:06:26;18.60;;;14.20;;
68653;SDS011;55636;51.108;13.622;2024-01-30T00:07:29;18.07;;;14.07;;
68653;SDS011;55636;51.108;13.622;2024-01-30T00:08:31;17.80;;;13.73;;
68653;SDS011;55636;51.108;13.622;2024-01-30T00:09:34;17.23;;;14.40;;
68653;SDS011;55636;51.108;13.622;2024-01-30T00:10:36;19.07;;;14.67;;
68653;SDS011;55636;51.108;13.622;2024-01-30T00:11:38;16.03;;;13.30;;
68653;SDS011;55636;51.108;13.622;2024-01-30T00:12:41;18.67;;;14.37;;
68653;SDS011;55636;51.108;13.622;2024-01-30T00:13:43;18.10;;;14.23;;
68653;SDS011;55636;51.108;13.622;2024-01-30T00:14:46;17.87;;;14.20;;
68653;SDS011;55636;51.108;13.622;2024-01-30T00:15:50;17.93;;;13.97;;
68653;SDS011;55636;51.108;13.622;2024-01-30T00:16:52;18.07;;;13.63;;
68653;SDS011;55636;51.108;13.622;2024-01-30T00:17:55;19.17;;;14.73;;
68653;SDS011;55636;51.108;13.622;2024-01-30T00:18:57;17.47;;;14.53;;
68653;SDS011;55636;51.108;13.622;2024-01-30T00:20:00;19.27;;;14.30;;
68653;SDS011;55636;51.108;13.622;2024-01-30T00:21:03;18.13;;;14.23;;
68653;SDS011;55636;51.108;13.622;2024-01-30T00:22:06;17.23;;;14.07;;
68653;SDS011;55636;51.108;13.622;2024-01-30T00:23:09;18.00;;;14.70;;
68653;SDS011;55636;51.108;13.622;2024-01-30T00:24:13;20.17;;;14.70;;
68653;SDS011;55636;51.108;13.622;2024-01-30T00:25:16;17.87;;;14.13;;
68653;SDS011;55636;51.108;13.622;2024-01-30T00:26:18;17.30;;;13.67;;
68653;SDS011;55636;51.108;13.622;2024-01-30T00:27:22;17.60;;;14.80;;
68653;SDS011;55636;51.108;13.622;2024-01-30T00:28:24;17.80;;;14.33;;
68653;SDS011;55636;51.108;13.622;2024-01-30T00:29:27;20.30;;;15.00;;
68653;SDS011;55636;51.108;13.622;2024-01-30T00:30:33;16.23;;;14.07;;
68653;SDS011;55636;51.108;13.622;2024-01-30T00:31:35;18.23;;;14.37;;
68653;SDS011;55636;51.108;13.622;2024-01-30T00:32:42;18.00;;;14.00;;
68653;SDS011;55636;51.108;13.622;2024-01-30T00:33:44;17.73;;;14.03;;
68653;SDS011;55636;51.108;13.622;2024-01-30T00:34:46;17.93;;;14.43;;
68653;SDS011;55636;51.108;13.622;2024-01-30T00:35:49;19.27;;;14.60;;
68653;SDS011;55636;51.108;13.622;2024-01-30T00:36:51;17.33;;;13.87;;
68653;SDS011;55636;51.108;13.622;2024-01-30T00:37:54;19.33;;;14.73;;
68653;SDS011;55636;51.108;13.622;2024-01-30T00:38:56;17.50;;;14.53;;
68653;SDS011;55636;51.108;13.622;2024-01-30T00:39:59;16.83;;;14.07;;
68653;SDS011;55636;51.108;13.622;2024-01-30T00:41:01;16.83;;;14.33;;
68653;SDS011;55636;51.108;13.622;2024-01-30T00:42:04;17.73;;;14.10;;
68653;SDS011;55636;51.108;13.622;2024-01-30T00:43:06;18.30;;;13.90;;
68653;SDS011;55636;51.108;13.622;2024-01-30T00:44:09;18.67;;;14.47;;
68653;SDS011;55636;51.108;13.622;2024-01-30T00:45:16;18.93;;;14.97;;
68653;SDS011;55636;51.108;13.622;2024-01-30T00:46:19;18.07;;;13.93;;
68653;SDS011;55636;51.108;13.622;2024-01-30T00:47:21;18.57;;;13.73;;
68653;SDS011;55636;51.108;13.622;2024-01-30T00:48:24;17.43;;;13.77;;
68653;SDS011;55636;51.108;13.622;2024-01-30T00:49:26;18.10;;;14.63;;
68653;SDS011;55636;51.108;13.622;2024-01-30T00:50:30;17.30;;;14.17;;
68653;SDS011;55636;51.108;13.622;2024-01-30T00:51:33;17.77;;;14.47;;
68653;SDS011;55636;51.108;13.622;2024-01-30T00:52:36;18.50;;;14.47;;
68653;SDS011;55636;51.108;13.622;2024-01-30T00:53:38;18.63;;;14.67;;
68653;SDS011;55636;51.108;13.622;2024-01-30T00:54:41;17.93;;;13.77;;
68653;SDS011;55636;51.108;13.622;2024-01-30T00:55:43;17.93;;;14.60;;
68653;SDS011;55636;51.108;13.622;2024-01-30T00:56:45;16.23;;;14.23;;
68653;SDS011;55636;51.108;13.622;2024-01-30T00:57:48;18.50;;;14.43;;
68653;SDS011;55636;51.108;13.622;2024-01-30T00:58:50;17.93;;;14.37;;
68653;SDS011;55636;51.108;13.622;2024-01-30T00:59:53;18.33;;;14.77;;
68653;SDS011;55636;51.108;13.622;2024-01-30T01:00:55;18.17;;;14.37;;
68653;SDS011;55636;51.108;13.622;2024-01-30T01:01:58;17.97;;;14.53;;
68653;SDS011;55636;51.108;13.622;2024-01-30T01:03:00;17.73;;;14.33;;
68653;SDS011;55636;51.108;13.622;2024-01-30T01:04:03;18.03;;;13.90;;
68653;SDS011;55636;51.108;13.622;2024-01-30T01:05:06;17.17;;;14.63;;
68653;SDS011;55636;51.108;13.622;2024-01-30T01:06:09;17.50;;;13.77;;
68653;SDS011;55636;51.108;13.622;2024-01-30T01:07:11;17.20;;;13.90;;
68653;SDS011;55636;51.108;13.622;2024-01-30T01:08:14;16.33;;;13.63;;
68653;SDS011;55636;51.108;13.622;2024-01-30T01:09:17;17.60;;;14.10;;
68653;SDS011;55636;51.108;13.622;2024-01-30T01:10:20;16.90;;;13.77;;
68653;SDS011;55636;51.108;13.622;2024-01-30T01:11:22;17.53;;;14.03;;
68653;SDS011;55636;51.108;13.622;2024-01-30T01:12:24;16.90;;;14.60;;
68653;SDS011;55636;51.108;13.622;2024-01-30T01:13:27;17.37;;;14.23;;
68653;SDS011;55636;51.108;13.622;2024-01-30T01:14:29;18.60;;;13.97;;
68653;SDS011;55636;51.108;13.622;2024-01-30T01:15:32;17.63;;;13.60;;
68653;SDS011;55636;51.108;13.622;2024-01-30T01:16:35;17.63;;;14.00;;
68653;SDS011;55636;51.108;13.622;2024-01-30T01:17:37;16.40;;;13.63;;
68653;SDS011;55636;51.108;13.622;2024-01-30T01:18:40;15.70;;;13.10;;
68653;SDS011;55636;51.108;13.622;2024-01-30T01:19:43;16.83;;;14.07;;
68653;SDS011;55636;51.108;13.622;2024-01-30T01:20:45;15.83;;;13.37;;
68653;SDS011;55636;51.108;13.622;2024-01-30T01:21:48;16.10;;;13.87;;
68653;SDS011;55636;51.108;13.622;2024-01-30T01:22:51;17.77;;;13.73;;
68653;SDS011;55636;51.108;13.622;2024-01-30T01:23:54;16.87;;;13.83;;
68653;SDS011;55636;51.108;13.622;2024-01-30T01:24:57;18.33;;;14.33;;
68653;SDS011;55636;51.108;13.622;2024-01-30T01:26:02;17.03;;;13.77;;
68653;SDS011;55636;51.108;13.622;2024-01-30T01:27:04;19.97;;;14.73;;
68653;SDS011;55636;51.108;13.622;2024-01-30T01:28:07;18.43;;;13.47;;
68653;SDS011;55636;51.108;13.622;2024-01-30T01:29:10;16.90;;;13.57;;
68653;SDS011;55636;51.108;13.622;2024-01-30T01:30:14;17.17;;;13.57;;
68653;SDS011;55636;51.108;13.622;2024-01-30T01:31:23;15.70;;;13.00;;
68653;SDS011;55636;51.108;13.622;2024-01-30T01:32:27;17.40;;;13.23;;
68653;SDS011;55636;51.108;13.622;2024-01-30T01:33:29;16.97;;;13.53;;
68653;SDS011;55636;51.108;13.622;2024-01-30T01:34:32;17.07;;;13.53;;
68653;SDS011;55636;51.108;13.622;2024-01-30T01:35:34;16.67;;;13.73;;
68653;SDS011;55636;51.108;13.622;2024-01-30T01:36:37;20.27;;;14.50;;
68653;SDS011;55636;51.108;13.622;2024-01-30T01:37:39;16.70;;;13.90;;
68653;SDS011;55636;51.108;13.622;2024-01-30T01:38:41;17.57;;;13.53;;
68653;SDS011;55636;51.108;13.622;2024-01-30T01:39:44;16.80;;;13.43;;
68653;SDS011;55636;51.108;13.622;2024-01-30T01:40:46;16.97;;;13.50;;
68653;SDS011;55636;51.108;13.622;2024-01-30T01:41:48;16.30;;;13.70;;
68653;SDS011;55636;51.108;13.622;2024-01-30T01:42:51;17.07;;;13.87;;
68653;SDS011;55636;51.108;13.622;2024-01-30T01:43:56;16.53;;;13.40;;
68653;SDS011;55636;51.108;13.622;2024-01-30T01:44:59;16.07;;;13.10;;
68653;SDS011;55636;51.108;13.622;2024-01-30T01:46:01;17.17;;;13.30;;
68653;SDS011;55636;51.108;13.622;2024-01-30T01:47:04;18.13;;;13.83;;
68653;SDS011;55636;51.108;13.622;2024-01-30T01:48:07;16.53;;;13.40;;
68653;SDS011;55636;51.108;13.622;2024-01-30T01:49:10;15.37;;;12.87;;
68653;SDS011;55636;51.108;13.622;2024-01-30T01:50:14;16.37;;;13.60;;
68653;SDS011;55636;51.108;13.622;2024-01-30T01:51:21;15.57;;;12.97;;
68653;SDS011;55636;51.108;13.622;2024-01-30T01:52:25;16.97;;;12.53;;
68653;SDS011;55636;51.108;13.622;2024-01-30T01:53:28;16.60;;;13.33;;
68653;SDS011;55636;51.108;13.622;2024-01-30T01:54:30;16.43;;;12.73;;
68653;SDS011;55636;51.108;13.622;2024-01-30T01:55:33;16.50;;;13.40;;
68653;SDS011;55636;51.108;13.622;2024-01-30T01:56:37;17.63;;;13.27;;
68653;SDS011;55636;51.108;13.622;2024-01-30T01:57:41;18.37;;;13.33;;
68653;SDS011;55636;51.108;13.622;2024-01-30T01:58:44;14.70;;;12.60;;
68653;SDS011;55636;51.108;13.622;2024-01-30T01:59:49;16.97;;;13.43;;
68653;SDS011;55636;51.108;13.622;2024-01-30T02:00:52;15.47;;;12.40;;
68653;SDS011;55636;51.108;13.622;2024-01-30T02:01:55;15.90;;;12.60;;
68653;SDS011;55636;51.108;13.622;2024-01-30T02:02:58;15.53;;;13.20;;
68653;SDS011;55636;51.108;13.622;2024-01-30T02:04:02;15.87;;;12.47;;
68653;SDS011;55636;51.108;13.622;2024-01-30T02:05:05;15.00;;;12.33;;
68653;SDS011;55636;51.108;13.622;2024-01-30T02:06:08;15.03;;;12.57;;
68653;SDS011;55636;51.108;13.622;2024-01-30T02:07:10;15.23;;;12.47;;
68653;SDS011;55636;51.108;13.622;2024-01-30T02:08:13;16.33;;;12.87;;
68653;SDS011;55636;51.108;13.622;2024-01-30T02:09:16;16.33;;;13.43;;
68653;SDS011;55636;51.108;13.622;2024-01-30T02:10:18;15.43;;;12.90;;
68653;SDS011;55636;51.108;13.622;2024-01-30T02:11:21;15.97;;;12.53;;
68653;SDS011;55636;51.108;13.622;2024-01-30T02:12:24;15.57;;;12.80;;
68653;SDS011;55636;51.108;13.622;2024-01-30T02:13:27;14.53;;;12.27;;
68653;SDS011;55636;51.108;13.622;2024-01-30T02:14:29;16.20;;;12.57;;
68653;SDS011;55636;51.108;13.622;2024-01-30T02:15:32;14.27;;;12.33;;
68653;SDS011;55636;51.108;13.622;2024-01-30T02:16:34;15.13;;;12.50;;
68653;SDS011;55636;51.108;13.622;2024-01-30T02:17:37;15.23;;;12.93;;
68653;SDS011;55636;51.108;13.622;2024-01-30T02:18:39;15.33;;;13.37;;
68653;SDS011;55636;51.108;13.622;2024-01-30T02:19:47;16.03;;;12.80;;
68653;SDS011;55636;51.108;13.622;2024-01-30T02:20:50;14.77;;;12.23;;
68653;SDS011;55636;51.108;13.622;2024-01-30T02:21:56;16.53;;;13.17;;
68653;SDS011;55636;51.108;13.622;2024-01-30T02:22:58;16.53;;;12.73;;
68653;SDS011;55636;51.108;13.622;2024-01-30T02:24:06;15.33;;;12.40;;
68653;SDS011;55636;51.108;13.622;2024-01-30T02:25:08;16.17;;;13.17;;
68653;SDS011;55636;51.108;13.622;2024-01-30T02:26:11;14.93;;;12.43;;
68653;SDS011;55636;51.108;13.622;2024-01-30T02:27:14;15.40;;;12.40;;
68653;SDS011;55636;51.108;13.622;2024-01-30T02:28:16;15.40;;;12.60;;
68653;SDS011;55636;51.108;13.622;2024-01-30T02:29:20;15.90;;;11.90;;
68653;SDS011;55636;51.108;13.622;2024-01-30T02:30:23;15.70;;;12.40;;
68653;SDS011;55636;51.108;13.622;2024-01-30T02:31:25;15.43;;;12.70;;
68653;SDS011;55636;51.108;13.622;2024-01-30T02:32:28;15.37;;;12.40;;
68653;SDS011;55636;51.108;13.622;2024-01-30T02:33:31;15.97;;;11.67;;
68653;SDS011;55636;51.108;13.622;2024-01-30T02:34:33;16.07;;;12.37;;
68653;SDS011;55636;51.108;13.622;2024-01-30T02:35:35;17.07;;;12.90;;
68653;SDS011;55636;51.108;13.622;2024-01-30T02:36:38;14.70;;;12.30;;
68653;SDS011;55636;51.108;13.622;2024-01-30T02:37:40;15.80;;;12.70;;
68653;SDS011;55636;51.108;13.622;2024-01-30T02:38:43;14.50;;;12.70;;
68653;SDS011;55636;51.108;13.622;2024-01-30T02:39:45;14.73;;;12.33;;
68653;SDS011;55636;51.108;13.622;2024-01-30T02:40:47;15.33;;;12.17;;
68653;SDS011;55636;51.108;13.622;2024-01-30T02:41:50;15.80;;;12.47;;
68653;SDS011;55636;51.108;13.622;2024-01-30T02:42:52;17.00;;;12.37;;
68653;SDS011;55636;51.108;13.622;2024-01-30T02:43:55;15.43;;;12.00;;
68653;SDS011;55636;51.108;13.622;2024-01-30T02:44:57;14.50;;;12.13;;
68653;SDS011;55636;51.108;13.622;2024-01-30T02:45:59;14.60;;;12.13;;
68653;SDS011;55636;51.108;13.622;2024-01-30T02:47:03;15.60;;;12.73;;
68653;SDS011;55636;51.108;13.622;2024-01-30T02:48:05;15.67;;;12.30;;
68653;SDS011;55636;51.108;13.622;2024-01-30T02:49:08;14.50;;;12.27;;
68653;SDS011;55636;51.108;13.622;2024-01-30T02:50:11;16.87;;;12.47;;
68653;SDS011;55636;51.108;13.622;2024-01-30T02:51:13;14.50;;;12.30;;
68653;SDS011;55636;51.108;13.622;2024-01-30T02:52:16;15.60;;;12.47;;
68653;SDS011;55636;51.108;13.622;2024-01-30T02:53:18;15.03;;;12.10;;
68653;SDS011;55636;51.108;13.622;2024-01-30T02:54:20;14.03;;;12.10;;
68653;SDS011;55636;51.108;13.622;2024-01-30T02:55:23;14.27;;;12.30;;
68653;SDS011;55636;51.108;13.622;2024-01-30T02:56:25;15.23;;;12.50;;
68653;SDS011;55636;51.108;13.622;2024-01-30T02:57:30;14.57;;;11.83;;
68653;SDS011;55636;51.108;13.622;2024-01-30T02:58:33;16.03;;;13.10;;
68653;SDS011;55636;51.108;13.622;2024-01-30T02:59:35;14.23;;;12.13;;
68653;SDS011;55636;51.108;13.622;2024-01-30T03:00:38;14.77;;;12.57;;
68653;SDS011;55636;51.108;13.622;2024-01-30T03:01:44;14.43;;;12.10;;
68653;SDS011;55636;51.108;13.622;2024-01-30T03:02:47;16.03;;;12.80;;
68653;SDS011;55636;51.108;13.622;2024-01-30T03:03:49;15.10;;;12.17;;
68653;SDS011;55636;51.108;13.622;2024-01-30T03:04:52;15.50;;;12.13;;
68653;SDS011;55636;51.108;13.622;2024-01-30T03:05:54;16.07;;;12.83;;
68653;SDS011;55636;51.108;13.622;2024-01-30T03:06:57;15.47;;;12.27;;
68653;SDS011;55636;51.108;13.622;2024-01-30T03:07:59;14.93;;;12.17;;
68653;SDS011;55636;51.108;13.622;2024-01-30T03:09:02;15.17;;;12.37;;
68653;SDS011;55636;51.108;13.622;2024-01-30T03:10:05;15.33;;;12.33;;
68653;SDS011;55636;51.108;13.622;2024-01-30T03:11:08;14.90;;;12.00;;
68653;SDS011;55636;51.108;13.622;2024-01-30T03:12:12;16.30;;;12.63;;
68653;SDS011;55636;51.108;13.622;2024-01-30T03:13:14;16.40;;;12.53;;
68653;SDS011;55636;51.108;13.622;2024-01-30T03:14:16;17.30;;;13.07;;
68653;SDS011;55636;51.108;13.622;2024-01-30T03:15:19;15.60;;;12.50;;
68653;SDS011;55636;51.108;13.622;2024-01-30T03:16:21;15.40;;;12.50;;
68653;SDS011;55636;51.108;13.622;2024-01-30T03:17:24;15.10;;;12.07;;
68653;SDS011;55636;51.108;13.622;2024-01-30T03:18:26;14.53;;;12.23;;
68653;SDS011;55636;51.108;13.622;2024-01-30T03:19:29;15.13;;;12.50;;
68653;SDS011;55636;51.108;13.622;2024-01-30T03:20:31;15.17;;;12.43;;
68653;SDS011;55636;51.108;13.622;2024-01-30T03:21:33;17.00;;;12.83;;
68653;SDS011;55636;51.108;13.622;2024-01-30T03:22:36;16.80;;;12.90;;
68653;SDS011;55636;51.108;13.622;2024-01-30T03:23:38;15.57;;;12.50;;
68653;SDS011;55636;51.108;13.622;2024-01-30T03:24:41;15.57;;;12.40;;
68653;SDS011;55636;51.108;13.622;2024-01-30T03:25:43;16.43;;;12.87;;
68653;SDS011;55636;51.108;13.622;2024-01-30T03:26:45;15.57;;;12.80;;
68653;SDS011;55636;51.108;13.622;2024-01-30T03:27:48;15.33;;;12.67;;
68653;SDS011;55636;51.108;13.622;2024-01-30T03:28:51;15.57;;;12.57;;
68653;SDS011;55636;51.108;13.622;2024-01-30T03:29:53;17.97;;;12.97;;
68653;SDS011;55636;51.108;13.622;2024-01-30T03:30:56;16.37;;;13.07;;
68653;SDS011;55636;51.108;13.622;2024-01-30T03:31:58;13.97;;;11.70;;
68653;SDS011;55636;51.108;13.622;2024-01-30T03:33:01;16.07;;;12.77;;
68653;SDS011;55636;51.108;13.622;2024-01-30T03:34:03;15.73;;;12.60;;
68653;SDS011;55636;51.108;13.622;2024-01-30T03:35:06;15.73;;;12.77;;
68653;SDS011;55636;51.108;13.622;2024-01-30T03:36:09;16.33;;;12.53;;
68653;SDS011;55636;51.108;13.622;2024-01-30T03:37:11;17.30;;;13.00;;
68653;SDS011;55636;51.108;13.622;2024-01-30T03:38:14;15.40;;;12.63;;
68653;SDS011;55636;51.108;13.622;2024-01-30T03:39:18;15.57;;;12.10;;
68653;SDS011;55636;51.108;13.622;2024-01-30T03:40:21;16.00;;;12.67;;
68653;SDS011;55636;51.108;13.622;2024-01-30T03:41:24;16.47;;;12.50;;
68653;SDS011;55636;51.108;13.622;2024-01-30T03:42:26;17.03;;;12.90;;
68653;SDS011;55636;51.108;13.622;2024-01-30T03:43:29;16.57;;;12.67;;
68653;SDS011;55636;51.108;13.622;2024-01-30T03:44:31;15.77;;;12.43;;
68653;SDS011;55636;51.108;13.622;2024-01-30T03:45:33;15.93;;;12.73;;
68653;SDS011;55636;51.108;13.622;2024-01-30T03:46:36;17.07;;;13.10;;
68653;SDS011;55636;51.108;13.622;2024-01-30T03:47:38;16.07;;;12.87;;
68653;SDS011;55636;51.108;13.622;2024-01-30T03:48:41;17.13;;;13.10;;
68653;SDS011;55636;51.108;13.622;2024-01-30T03:49:43;17.43;;;13.07;;
68653;SDS011;55636;51.108;13.622;2024-01-30T03:50:46;16.37;;;12.67;;
68653;SDS011;55636;51.108;13.622;2024-01-30T03:51:48;17.27;;;12.73;;
68653;SDS011;55636;51.108;13.622;2024-01-30T03:52:50;15.60;;;12.87;;
68653;SDS011;55636;51.108;13.622;2024-01-30T03:53:53;16.27;;;12.63;;
68653;SDS011;55636;51.108;13.622;2024-01-30T03:54:55;14.03;;;12.17;;
68653;SDS011;55636;51.108;13.622;2024-01-30T03:55:57;16.83;;;13.23;;
68653;SDS011;55636;51.108;13.622;2024-01-30T03:57:00;16.00;;;12.93;;
68653;SDS011;55636;51.108;13.622;2024-01-30T03:58:02;16.13;;;12.67;;
68653;SDS011;55636;51.108;13.622;2024-01-30T03:59:05;17.47;;;12.93;;
68653;SDS011;55636;51.108;13.622;2024-01-30T04:00:07;15.77;;;13.10;;
68653;SDS011;55636;51.108;13.622;2024-01-30T04:01:14;17.83;;;12.77;;
68653;SDS011;55636;51.108;13.622;2024-01-30T04:02:17;17.57;;;13.23;;
68653;SDS011;55636;51.108;13.622;2024-01-30T04:03:20;16.47;;;13.00;;
68653;SDS011;55636;51.108;13.622;2024-01-30T04:04:22;15.87;;;13.23;;
68653;SDS011;55636;51.108;13.622;2024-01-30T04:05:25;15.90;;;13.40;;
68653;SDS011;55636;51.108;13.622;2024-01-30T04:06:27;15.13;;;12.10;;
68653;SDS011;55636;51.108;13.622;2024-01-30T04:07:32;18.10;;;13.07;;
68653;SDS011;55636;51.108;13.622;2024-01-30T04:08:34;18.23;;;13.20;;
68653;SDS011;55636;51.108;13.622;2024-01-30T04:09:38;17.67;;;12.97;;
68653;SDS011;55636;51.108;13.622;2024-01-30T04:10:40;16.03;;;12.60;;
68653;SDS011;55636;51.108;13.622;2024-01-30T04:11:43;16.57;;;12.93;;
68653;SDS011;55636;51.108;13.622;2024-01-30T04:12:45;16.47;;;12.80;;
68653;SDS011;55636;51.108;13.622;2024-01-30T04:13:47;16.57;;;12.73;;
68653;SDS011;55636;51.108;13.622;2024-01-30T04:14:50;15.73;;;12.67;;
68653;SDS011;55636;51.108;13.622;2024-01-30T04:15:52;18.60;;;13.27;;
68653;SDS011;55636;51.108;13.622;2024-01-30T04:16:56;16.17;;;13.40;;
68653;SDS011;55636;51.108;13.622;2024-01-30T04:18:05;16.10;;;13.10;;
68653;SDS011;55636;51.108;13.622;2024-01-30T04:19:08;17.10;;;13.17;;
68653;SDS011;55636;51.108;13.622;2024-01-30T04:20:14;17.37;;;13.27;;
68653;SDS011;55636;51.108;13.622;2024-01-30T04:21:26;17.43;;;12.63;;
68653;SDS011;55636;51.108;13.622;2024-01-30T04:22:31;15.00;;;12.50;;
68653;SDS011;55636;51.108;13.622;2024-01-30T04:23:41;16.80;;;13.17;;
68653;SDS011;55636;51.108;13.622;2024-01-30T04:24:44;17.17;;;13.40;;
68653;SDS011;55636;51.108;13.622;2024-01-30T04:25:46;18.10;;;13.33;;
68653;SDS011;55636;51.108;13.622;2024-01-30T04:26:48;16.60;;;12.67;;
68653;SDS011;55636;51.108;13.622;2024-01-30T04:27:51;16.50;;;13.00;;
68653;SDS011;55636;51.108;13.622;2024-01-30T04:28:53;16.30;;;13.00;;
68653;SDS011;55636;51.108;13.622;2024-01-30T04:29:55;17.30;;;12.90;;
68653;SDS011;55636;51.108;13.622;2024-01-30T04:30:58;17.93;;;13.20;;
68653;SDS011;55636;51.108;13.622;2024-01-30T04:32:01;19.87;;;13.60;;
68653;SDS011;55636;51.108;13.622;2024-01-30T04:33:04;17.27;;;13.27;;
68653;SDS011;55636;51.108;13.622;2024-01-30T04:34:06;15.53;;;12.73;;
68653;SDS011;55636;51.108;13.622;2024-01-30T04:35:09;17.57;;;13.03;;
68653;SDS011;55636;51.108;13.622;2024-01-30T04:36:13;16.83;;;12.87;;
68653;SDS011;55636;51.108;13.622;2024-01-30T04:37:15;16.40;;;12.50;;
68653;SDS011;55636;51.108;13.622;2024-01-30T04:38:19;16.90;;;13.33;;
68653;SDS011;55636;51.108;13.622;2024-01-30T04:39:21;17.40;;;13.33;;
68653;SDS011;55636;51.108;13.622;2024-01-30T04:40:24;17.77;;;13.10;;
68653;SDS011;55636;51.108;13.622;2024-01-30T04:41:26;15.03;;;13.03;;
68653;SDS011;55636;51.108;13.622;2024-01-30T04:42:33;16.27;;;12.97;;
68653;SDS011;55636;51.108;13.622;2024-01-30T04:43:35;16.90;;;13.37;;
68653;SDS011;55636;51.108;13.622;2024-01-30T04:44:38;15.80;;;12.93;;
68653;SDS011;55636;51.108;13.622;2024-01-30T04:45:40;18.23;;;13.53;;
68653;SDS011;55636;51.108;13.622;2024-01-30T04:46:43;16.90;;;13.23;;
68653;SDS011;55636;51.108;13.622;2024-01-30T04:47:45;18.40;;;13.73;;
68653;SDS011;55636;51.108;13.622;2024-01-30T04:48:48;16.90;;;12.90;;
68653;SDS011;55636;51.108;13.622;2024-01-30T04:49:51;16.63;;;13.00;;
68653;SDS011;55636;51.108;13.622;2024-01-30T04:50:54;17.13;;;13.03;;
68653;SDS011;55636;51.108;13.622;2024-01-30T04:51:58;17.47;;;13.47;;
68653;SDS011;55636;51.108;13.622;2024-01-30T04:53:00;15.67;;;13.13;;
68653;SDS011;55636;51.108;13.622;2024-01-30T04:54:03;16.97;;;13.40;;
68653;SDS011;55636;51.108;13.622;2024-01-30T04:55:06;18.30;;;13.33;;
68653;SDS011;55636;51.108;13.622;2024-01-30T04:56:09;17.20;;;13.27;;
68653;SDS011;55636;51.108;13.622;2024-01-30T04:57:11;18.00;;;13.77;;
68653;SDS011;55636;51.108;13.622;2024-01-30T04:58:14;18.03;;;13.80;;
68653;SDS011;55636;51.108;13.622;2024-01-30T04:59:16;18.43;;;13.00;;
68653;SDS011;55636;51.108;13.622;2024-01-30T05:00:20;17.70;;;13.73;;
68653;SDS011;55636;51.108;13.622;2024-01-30T05:01:22;15.97;;;13.60;;
68653;SDS011;55636;51.108;13.622;2024-01-30T05:02:24;18.53;;;13.47;;
68653;SDS011;55636;51.108;13.622;2024-01-30T05:03:27;16.80;;;13.17;;
68653;SDS011;55636;51.108;13.622;2024-01-30T05:04:29;16.60;;;13.67;;
68653;SDS011;55636;51.108;13.622;2024-01-30T05:05:32;18.27;;;13.80;;
68653;SDS011;55636;51.108;13.622;2024-01-30T05:06:34;18.77;;;13.63;;
68653;SDS011;55636;51.108;13.622;2024-01-30T05:07:38;17.00;;;13.07;;
68653;SDS011;55636;51.108;13.622;2024-01-30T05:08:41;17.37;;;13.23;;
68653;SDS011;55636;51.108;13.622;2024-01-30T05:09:44;17.50;;;13.20;;
68653;SDS011;55636;51.108;13.622;2024-01-30T05:10:46;17.47;;;13.50;;
68653;SDS011;55636;51.108;13.622;2024-01-30T05:11:49;18.43;;;13.10;;
68653;SDS011;55636;51.108;13.622;2024-01-30T05:12:51;18.10;;;12.60;;
68653;SDS011;55636;51.108;13.622;2024-01-30T05:13:53;17.57;;;13.77;;
68653;SDS011;55636;51.108;13.622;2024-01-30T05:14:57;16.30;;;13.63;;
68653;SDS011;55636;51.108;13.622;2024-01-30T05:16:01;16.53;;;13.00;;
68653;SDS011;55636;51.108;13.622;2024-01-30T05:17:05;17.37;;;13.57;;
68653;SDS011;55636;51.108;13.622;2024-01-30T05:18:07;17.10;;;13.47;;
68653;SDS011;55636;51.108;13.622;2024-01-30T05:19:10;16.60;;;12.93;;
68653;SDS011;55636;51.108;13.622;2024-01-30T05:20:12;18.57;;;13.40;;
68653;SDS011;55636;51.108;13.622;2024-01-30T05:21:15;16.40;;;12.83;;
68653;SDS011;55636;51.108;13.622;2024-01-30T05:22:17;17.50;;;13.57;;
68653;SDS011;55636;51.108;13.622;2024-01-30T05:23:21;16.60;;;13.30;;
68653;SDS011;55636;51.108;13.622;2024-01-30T05:24:23;16.73;;;13.17;;
68653;SDS011;55636;51.108;13.622;2024-01-30T05:25:28;16.90;;;13.43;;
68653;SDS011;55636;51.108;13.622;2024-01-30T05:26:31;15.40;;;13.17;;
68653;SDS011;55636;51.108;13.622;2024-01-30T05:27:34;18.40;;;13.70;;
68653;SDS011;55636;51.108;13.622;2024-01-30T05:28:36;17.27;;;13.70;;
68653;SDS011;55636;51.108;13.622;2024-01-30T05:29:40;16.57;;;12.73;;
68653;SDS011;55636;51.108;13.622;2024-01-30T05:30:43;17.23;;;13.30;;
68653;SDS011;55636;51.108;13.622;2024-01-30T05:31:45;17.83;;;13.10;;
68653;SDS011;55636;51.108;13.622;2024-01-30T05:32:47;16.30;;;13.30;;
68653;SDS011;55636;51.108;13.622;2024-01-30T05:33:50;17.07;;;13.33;;
68653;SDS011;55636;51.108;13.622;2024-01-30T05:34:53;18.00;;;13.43;;
68653;SDS011;55636;51.108;13.622;2024-01-30T05:35:55;16.23;;;13.17;;
68653;SDS011;55636;51.108;13.622;2024-01-30T05:36:58;16.23;;;13.40;;
68653;SDS011;55636;51.108;13.622;2024-01-30T05:38:01;16.40;;;12.93;;
68653;SDS011;55636;51.108;13.622;2024-01-30T05:39:03;16.97;;;13.63;;
68653;SDS011;55636;51.108;13.622;2024-01-30T05:40:10;16.57;;;13.13;;
68653;SDS011;55636;51.108;13.622;2024-01-30T05:41:13;16.47;;;13.43;;
68653;SDS011;55636;51.108;13.622;2024-01-30T05:42:15;17.23;;;13.50;;
68653;SDS011;55636;51.108;13.622;2024-01-30T05:43:18;16.13;;;13.23;;
68653;SDS011;55636;51.108;13.622;2024-01-30T05:44:21;17.70;;;12.80;;
68653;SDS011;55636;51.108;13.622;2024-01-30T05:45:23;17.73;;;12.97;;
68653;SDS011;55636;51.108;13.622;2024-01-30T05:46:26;16.67;;;12.97;;
68653;SDS011;55636;51.108;13.622;2024-01-30T05:47:28;17.70;;;13.20;;
68653;SDS011;55636;51.108;13.622;2024-01-30T05:48:30;16.10;;;12.53;;
68653;SDS011;55636;51.108;13.622;2024-01-30T05:49:33;15.93;;;12.83;;
68653;SDS011;55636;51.108;13.622;2024-01-30T05:50:35;15.83;;;12.87;;
68653;SDS011;55636;51.108;13.622;2024-01-30T05:51:39;16.33;;;12.97;;
68653;SDS011;55636;51.108;13.622;2024-01-30T05:52:41;15.87;;;12.80;;
68653;SDS011;55636;51.108;13.622;2024-01-30T05:53:43;16.37;;;13.13;;
68653;SDS011;55636;51.108;13.622;2024-01-30T05:54:46;17.10;;;13.03;;
68653;SDS011;55636;51.108;13.622;2024-01-30T05:55:48;15.83;;;13.23;;
68653;SDS011;55636;51.108;13.622;2024-01-30T05:56:51;15.93;;;12.63;;
68653;SDS011;55636;51.108;13.622;2024-01-30T05:57:53;15.77;;;13.10;;
68653;SDS011;55636;51.108;13.622;2024-01-30T05:58:56;15.93;;;12.37;;
68653;SDS011;55636;51.108;13.622;2024-01-30T05:59:58;17.50;;;12.93;;
68653;SDS011;55636;51.108;13.622;2024-01-30T06:01:01;14.83;;;12.90;;
68653;SDS011;55636;51.108;13.622;2024-01-30T06:02:03;16.17;;;12.63;;